WXM80 ListenWXM80 Stop

You find our weather info also at:

UK Metoffice

WeatherCloud

Weather Underground

Northeastern Weather Network

AWEKAS

Citizen Weather Observer Program (CWOP)

HAMweather, WeatherForYou, PWS Weather


Weather Underground History page Text

Daily Summary for February 13, 2018 Units:  Both    English   Metric
« Previous Day
Next Day »
Daily Weekly Monthly Yearly Custom
  High: Low: Average:
Temperature: 34.7 °F /  1.5 °C 26.1 °F /  -3.3 °C 30.4 °F /  -0.9 °C
Dew Point: 26.4 °F /  -3.1 °C 12.9 °F /  -10.6 °C 18.6 °F /  -7.4 °C
Humidity: 82 % 43 % 62 %
Wind Speed: 12.0 mph /  19.3 km/h - 3.7 mph /  6 km/h
Wind Gust: 19.6 mph /  31.5 km/h - -
Wind:- - East
Pressure: 30.60 in /  1036.1 hPa 30.31 in /  1026.3 hPa -
Precipitation: 0.00 in /  0 mm    
Historical Graphs
 
 
Tabular Data for February 13, 2018
Time Temperature Dew Point Pressure Wind Wind Speed Wind Gust Humidity Rainfall Rate (Hourly)
00:02 31.7 °F /  -0.2 °C 23.0 °F /  -5 °C 30.43 in /  1030.4 hPa NNW 5.1 mph /  8.2 km/h 8.1 mph /  13 km/h 70 % 0.00 in /  0 mm
00:07 31.6 °F /  -0.2 °C 23.3 °F /  -4.8 °C 30.43 in /  1030.4 hPa North 4.9 mph /  7.9 km/h 6.0 mph /  9.7 km/h 71 % 0.00 in /  0 mm
00:12 31.6 °F /  -0.2 °C 23.3 °F /  -4.8 °C 30.43 in /  1030.4 hPa NE 5.3 mph /  8.5 km/h 6.9 mph /  11.1 km/h 71 % 0.00 in /  0 mm
00:18 31.5 °F /  -0.3 °C 23.2 °F /  -4.9 °C 30.43 in /  1030.4 hPa NNE 8.4 mph /  13.5 km/h 11.5 mph /  18.5 km/h 71 % 0.00 in /  0 mm
00:23 31.4 °F /  -0.3 °C 22.7 °F /  -5.2 °C 30.44 in /  1030.7 hPa NNW 4.1 mph /  6.6 km/h 11.5 mph /  18.5 km/h 70 % 0.00 in /  0 mm
00:28 31.3 °F /  -0.4 °C 22.6 °F /  -5.2 °C 30.44 in /  1030.7 hPa NW 3.9 mph /  6.3 km/h 8.1 mph /  13 km/h 70 % 0.00 in /  0 mm
00:33 31.2 °F /  -0.4 °C 22.5 °F /  -5.3 °C 30.44 in /  1030.7 hPa NNE 3.2 mph /  5.1 km/h 5.8 mph /  9.3 km/h 70 % 0.00 in /  0 mm
00:38 31.1 °F /  -0.5 °C 22.5 °F /  -5.3 °C 30.44 in /  1030.7 hPa North 5.1 mph /  8.2 km/h 8.1 mph /  13 km/h 70 % 0.00 in /  0 mm
00:43 31.1 °F /  -0.5 °C 22.5 °F /  -5.3 °C 30.44 in /  1030.7 hPa NNW 4.0 mph /  6.4 km/h 7.0 mph /  11.3 km/h 70 % 0.00 in /  0 mm
00:48 30.9 °F /  -0.6 °C 22.6 °F /  -5.2 °C 30.44 in /  1030.7 hPa North 3.6 mph /  5.8 km/h 5.8 mph /  9.3 km/h 71 % 0.00 in /  0 mm
00:53 30.8 °F /  -0.7 °C 22.5 °F /  -5.3 °C 30.44 in /  1030.7 hPa NNE 5.0 mph /  8 km/h 8.1 mph /  13 km/h 71 % 0.00 in /  0 mm
00:58 30.7 °F /  -0.7 °C 22.4 °F /  -5.3 °C 30.45 in /  1031 hPa NE 3.4 mph /  5.5 km/h 6.9 mph /  11.1 km/h 71 % 0.00 in /  0 mm
01:03 30.6 °F /  -0.8 °C 22.3 °F /  -5.4 °C 30.45 in /  1031 hPa NNW 4.5 mph /  7.2 km/h 9.2 mph /  14.8 km/h 71 % 0.00 in /  0 mm
01:08 30.5 °F /  -0.8 °C 21.9 °F /  -5.6 °C 30.45 in /  1031 hPa North 4.6 mph /  7.4 km/h 7.0 mph /  11.3 km/h 70 % 0.00 in /  0 mm
01:13 30.3 °F /  -0.9 °C 21.7 °F /  -5.7 °C 30.45 in /  1031 hPa NNE 4.5 mph /  7.2 km/h 8.1 mph /  13 km/h 70 % 0.00 in /  0 mm
01:18 30.3 °F /  -0.9 °C 22.0 °F /  -5.6 °C 30.45 in /  1031 hPa NNE 6.7 mph /  10.8 km/h 9.2 mph /  14.8 km/h 71 % 0.00 in /  0 mm
01:23 30.1 °F /  -1.1 °C 21.5 °F /  -5.8 °C 30.45 in /  1031 hPa NNE 5.4 mph /  8.7 km/h 9.2 mph /  14.8 km/h 70 % 0.00 in /  0 mm
01:28 30.0 °F /  -1.1 °C 21.4 °F /  -5.9 °C 30.45 in /  1031 hPa NNE 5.3 mph /  8.5 km/h 10.4 mph /  16.7 km/h 70 % 0.00 in /  0 mm
01:33 29.9 °F /  -1.2 °C 21.3 °F /  -5.9 °C 30.46 in /  1031.4 hPa NNW 6.0 mph /  9.7 km/h 11.5 mph /  18.5 km/h 70 % 0.00 in /  0 mm
01:38 29.7 °F /  -1.3 °C 21.1 °F /  -6.1 °C 30.46 in /  1031.4 hPa North 6.9 mph /  11.1 km/h 11.5 mph /  18.5 km/h 70 % 0.00 in /  0 mm
01:43 29.6 °F /  -1.3 °C 20.7 °F /  -6.3 °C 30.46 in /  1031.4 hPa North 7.9 mph /  12.7 km/h 10.4 mph /  16.7 km/h 69 % 0.00 in /  0 mm
01:48 29.5 °F /  -1.4 °C 20.9 °F /  -6.2 °C 30.46 in /  1031.4 hPa NNE 7.1 mph /  11.4 km/h 10.4 mph /  16.7 km/h 70 % 0.00 in /  0 mm
01:54 29.4 °F /  -1.4 °C 20.8 °F /  -6.2 °C 30.47 in /  1031.7 hPa NNE 2.3 mph /  3.7 km/h 10.4 mph /  16.7 km/h 70 % 0.00 in /  0 mm
01:59 29.3 °F /  -1.5 °C 20.7 °F /  -6.3 °C 30.47 in /  1031.7 hPa NNE 6.3 mph /  10.1 km/h 10.4 mph /  16.7 km/h 70 % 0.00 in /  0 mm
02:04 29.2 °F /  -1.6 °C 20.6 °F /  -6.3 °C 30.47 in /  1031.7 hPa NNE 6.2 mph /  10 km/h 9.2 mph /  14.8 km/h 70 % 0.00 in /  0 mm
02:09 29.1 °F /  -1.6 °C 20.5 °F /  -6.4 °C 30.47 in /  1031.7 hPa NNE 8.0 mph /  12.9 km/h 11.5 mph /  18.5 km/h 70 % 0.00 in /  0 mm
02:14 28.9 °F /  -1.7 °C 20.0 °F /  -6.7 °C 30.47 in /  1031.7 hPa NNW 6.4 mph /  10.3 km/h 11.0 mph /  17.7 km/h 69 % 0.00 in /  0 mm
02:19 28.8 °F /  -1.8 °C 19.9 °F /  -6.7 °C 30.48 in /  1032.1 hPa North 8.4 mph /  13.5 km/h 15.0 mph /  24.1 km/h 69 % 0.00 in /  0 mm
02:24 28.7 °F /  -1.8 °C 19.8 °F /  -6.8 °C 30.48 in /  1032.1 hPa North 3.9 mph /  6.3 km/h 11.5 mph /  18.5 km/h 69 % 0.00 in /  0 mm
02:29 28.7 °F /  -1.8 °C 20.1 °F /  -6.6 °C 30.47 in /  1031.7 hPa NE 5.3 mph /  8.5 km/h 8.1 mph /  13 km/h 70 % 0.00 in /  0 mm
02:34 28.6 °F /  -1.9 °C 20.1 °F /  -6.6 °C 30.47 in /  1031.7 hPa NNE 8.2 mph /  13.2 km/h 11.5 mph /  18.5 km/h 70 % 0.00 in /  0 mm
02:39 28.5 °F /  -1.9 °C 20.0 °F /  -6.7 °C 30.47 in /  1031.7 hPa North 7.4 mph /  11.9 km/h 10.4 mph /  16.7 km/h 70 % 0.00 in /  0 mm
02:44 28.4 °F /  -2 °C 19.9 °F /  -6.7 °C 30.47 in /  1031.7 hPa North 5.4 mph /  8.7 km/h 11.5 mph /  18.5 km/h 70 % 0.00 in /  0 mm
02:49 28.4 °F /  -2 °C 19.9 °F /  -6.7 °C 30.47 in /  1031.7 hPa NNE 9.6 mph /  15.4 km/h 15.0 mph /  24.1 km/h 70 % 0.00 in /  0 mm
02:54 28.3 °F /  -2.1 °C 19.8 °F /  -6.8 °C 30.47 in /  1031.7 hPa NNE 4.8 mph /  7.7 km/h 7.0 mph /  11.3 km/h 70 % 0.00 in /  0 mm
02:59 28.3 °F /  -2.1 °C 19.8 °F /  -6.8 °C 30.47 in /  1031.7 hPa NNE 7.3 mph /  11.7 km/h 15.0 mph /  24.1 km/h 70 % 0.00 in /  0 mm
03:04 28.2 °F /  -2.1 °C 19.7 °F /  -6.8 °C 30.48 in /  1032.1 hPa NNE 8.8 mph /  14.2 km/h 12.7 mph /  20.4 km/h 70 % 0.00 in /  0 mm
03:09 28.1 °F /  -2.2 °C 19.6 °F /  -6.9 °C 30.48 in /  1032.1 hPa North 6.7 mph /  10.8 km/h 12.7 mph /  20.4 km/h 70 % 0.00 in /  0 mm
03:15 28.0 °F /  -2.2 °C 19.5 °F /  -6.9 °C 30.48 in /  1032.1 hPa NE 8.7 mph /  14 km/h 13.0 mph /  20.9 km/h 70 % 0.00 in /  0 mm
03:20 27.9 °F /  -2.3 °C 19.0 °F /  -7.2 °C 30.49 in /  1032.4 hPa North 6.7 mph /  10.8 km/h 9.2 mph /  14.8 km/h 69 % 0.00 in /  0 mm
03:25 27.9 °F /  -2.3 °C 19.0 °F /  -7.2 °C 30.49 in /  1032.4 hPa North 8.3 mph /  13.4 km/h 15.0 mph /  24.1 km/h 69 % 0.00 in /  0 mm
03:30 27.8 °F /  -2.3 °C 18.9 °F /  -7.3 °C 30.49 in /  1032.4 hPa NNE 7.7 mph /  12.4 km/h 12.0 mph /  19.3 km/h 69 % 0.00 in /  0 mm
03:35 27.7 °F /  -2.4 °C 18.8 °F /  -7.3 °C 30.49 in /  1032.4 hPa NE 5.9 mph /  9.5 km/h 15.0 mph /  24.1 km/h 69 % 0.00 in /  0 mm
03:40 27.6 °F /  -2.4 °C 18.8 °F /  -7.3 °C 30.49 in /  1032.4 hPa NNW 9.1 mph /  14.6 km/h 14.0 mph /  22.5 km/h 69 % 0.00 in /  0 mm
03:45 27.6 °F /  -2.4 °C 18.8 °F /  -7.3 °C 30.49 in /  1032.4 hPa NNE 8.5 mph /  13.7 km/h 12.0 mph /  19.3 km/h 69 % 0.00 in /  0 mm
03:50 27.5 °F /  -2.5 °C 18.7 °F /  -7.4 °C 30.49 in /  1032.4 hPa NNE 6.6 mph /  10.6 km/h 10.4 mph /  16.7 km/h 69 % 0.00 in /  0 mm
03:55 27.4 °F /  -2.6 °C 18.6 °F /  -7.4 °C 30.49 in /  1032.4 hPa NNE 6.8 mph /  10.9 km/h 10.4 mph /  16.7 km/h 69 % 0.00 in /  0 mm
04:00 27.4 °F /  -2.6 °C 18.6 °F /  -7.4 °C 30.50 in /  1032.7 hPa NE 7.0 mph /  11.3 km/h 13.8 mph /  22.2 km/h 69 % 0.00 in /  0 mm
04:05 27.3 °F /  -2.6 °C 18.5 °F /  -7.5 °C 30.50 in /  1032.7 hPa NNE 7.0 mph /  11.3 km/h 11.5 mph /  18.5 km/h 69 % 0.00 in /  0 mm
04:10 27.2 °F /  -2.7 °C 18.0 °F /  -7.8 °C 30.50 in /  1032.7 hPa NE 7.3 mph /  11.7 km/h 12.7 mph /  20.4 km/h 68 % 0.00 in /  0 mm
04:15 27.2 °F /  -2.7 °C 18.4 °F /  -7.6 °C 30.50 in /  1032.7 hPa NNE 7.0 mph /  11.3 km/h 11.5 mph /  18.5 km/h 69 % 0.00 in /  0 mm
04:20 27.2 °F /  -2.7 °C 18.0 °F /  -7.8 °C 30.50 in /  1032.7 hPa North 10.3 mph /  16.6 km/h 11.5 mph /  18.5 km/h 68 % 0.00 in /  0 mm
04:25 27.1 °F /  -2.7 °C 17.9 °F /  -7.8 °C 30.50 in /  1032.7 hPa NNE 9.3 mph /  15 km/h 13.8 mph /  22.2 km/h 68 % 0.00 in /  0 mm
04:30 27.0 °F /  -2.8 °C 17.8 °F /  -7.9 °C 30.50 in /  1032.7 hPa NNW 9.7 mph /  15.6 km/h 14.0 mph /  22.5 km/h 68 % 0.00 in /  0 mm
04:35 27.0 °F /  -2.8 °C 17.8 °F /  -7.9 °C 30.50 in /  1032.7 hPa NE 8.8 mph /  14.2 km/h 12.7 mph /  20.4 km/h 68 % 0.00 in /  0 mm
04:40 26.9 °F /  -2.8 °C 17.4 °F /  -8.1 °C 30.50 in /  1032.7 hPa NNW 6.6 mph /  10.6 km/h 13.8 mph /  22.2 km/h 67 % 0.00 in /  0 mm
04:45 26.9 °F /  -2.8 °C 17.4 °F /  -8.1 °C 30.51 in /  1033.1 hPa North 7.9 mph /  12.7 km/h 14.0 mph /  22.5 km/h 67 % 0.00 in /  0 mm
04:50 26.9 °F /  -2.8 °C 17.0 °F /  -8.3 °C 30.51 in /  1033.1 hPa NNE 9.0 mph /  14.5 km/h 14.0 mph /  22.5 km/h 66 % 0.00 in /  0 mm
04:55 26.9 °F /  -2.8 °C 17.4 °F /  -8.1 °C 30.52 in /  1033.4 hPa North 7.0 mph /  11.3 km/h 12.0 mph /  19.3 km/h 67 % 0.00 in /  0 mm
05:00 26.8 °F /  -2.9 °C 17.0 °F /  -8.3 °C 30.52 in /  1033.4 hPa NNE 6.1 mph /  9.8 km/h 10.4 mph /  16.7 km/h 66 % 0.00 in /  0 mm
05:05 26.7 °F /  -2.9 °C 16.5 °F /  -8.6 °C 30.52 in /  1033.4 hPa NNE 6.0 mph /  9.7 km/h 12.0 mph /  19.3 km/h 65 % 0.00 in /  0 mm
05:10 26.7 °F /  -2.9 °C 16.5 °F /  -8.6 °C 30.52 in /  1033.4 hPa North 7.0 mph /  11.3 km/h 14.0 mph /  22.5 km/h 65 % 0.00 in /  0 mm
05:15 26.7 °F /  -2.9 °C 16.5 °F /  -8.6 °C 30.53 in /  1033.7 hPa NNE 9.7 mph /  15.6 km/h 15.0 mph /  24.1 km/h 65 % 0.00 in /  0 mm
05:20 26.6 °F /  -3 °C 16.1 °F /  -8.8 °C 30.53 in /  1033.7 hPa NNE 8.0 mph /  12.9 km/h 12.0 mph /  19.3 km/h 64 % 0.00 in /  0 mm
05:25 26.6 °F /  -3 °C 16.1 °F /  -8.8 °C 30.53 in /  1033.7 hPa North 7.0 mph /  11.3 km/h 13.0 mph /  20.9 km/h 64 % 0.00 in /  0 mm
05:30 26.6 °F /  -3 °C 16.1 °F /  -8.8 °C 30.53 in /  1033.7 hPa North 6.0 mph /  9.7 km/h 12.0 mph /  19.3 km/h 64 % 0.00 in /  0 mm
05:35 26.5 °F /  -3.1 °C 16.0 °F /  -8.9 °C 30.53 in /  1033.7 hPa North 7.0 mph /  11.3 km/h 12.0 mph /  19.3 km/h 64 % 0.00 in /  0 mm
05:40 26.5 °F /  -3.1 °C 16.0 °F /  -8.9 °C 30.53 in /  1033.7 hPa North 7.0 mph /  11.3 km/h 13.0 mph /  20.9 km/h 64 % 0.00 in /  0 mm
05:45 26.5 °F /  -3.1 °C 16.0 °F /  -8.9 °C 30.53 in /  1033.7 hPa North 8.0 mph /  12.9 km/h 16.0 mph /  25.7 km/h 64 % 0.00 in /  0 mm
05:50 26.4 °F /  -3.1 °C 15.1 °F /  -9.4 °C 30.53 in /  1033.7 hPa NNE 9.0 mph /  14.5 km/h 15.0 mph /  24.1 km/h 62 % 0.00 in /  0 mm
05:55 26.4 °F /  -3.1 °C 14.8 °F /  -9.6 °C 30.53 in /  1033.7 hPa NNE 8.9 mph /  14.3 km/h 17.3 mph /  27.8 km/h 61 % 0.00 in /  0 mm
06:01 26.4 °F /  -3.1 °C 14.8 °F /  -9.6 °C 30.53 in /  1033.7 hPa NNE 7.9 mph /  12.7 km/h 11.5 mph /  18.5 km/h 61 % 0.00 in /  0 mm
06:06 26.3 °F /  -3.2 °C 14.3 °F /  -9.8 °C 30.53 in /  1033.7 hPa North 9.6 mph /  15.4 km/h 12.7 mph /  20.4 km/h 60 % 0.00 in /  0 mm
06:11 26.3 °F /  -3.2 °C 14.3 °F /  -9.8 °C 30.52 in /  1033.4 hPa NNW 5.8 mph /  9.3 km/h 10.4 mph /  16.7 km/h 60 % 0.00 in /  0 mm
06:16 26.3 °F /  -3.2 °C 15.0 °F /  -9.4 °C 30.53 in /  1033.7 hPa North 10.2 mph /  16.4 km/h 15.0 mph /  24.1 km/h 62 % 0.00 in /  0 mm
06:21 26.3 °F /  -3.2 °C 14.3 °F /  -9.8 °C 30.53 in /  1033.7 hPa NNE 10.4 mph /  16.7 km/h 13.0 mph /  20.9 km/h 60 % 0.00 in /  0 mm
06:26 26.3 °F /  -3.2 °C 14.3 °F /  -9.8 °C 30.53 in /  1033.7 hPa North 7.8 mph /  12.6 km/h 12.7 mph /  20.4 km/h 60 % 0.00 in /  0 mm
06:31 26.2 °F /  -3.2 °C 14.2 °F /  -9.9 °C 30.54 in /  1034.1 hPa NNE 7.2 mph /  11.6 km/h 12.0 mph /  19.3 km/h 60 % 0.00 in /  0 mm
06:36 26.2 °F /  -3.2 °C 14.2 °F /  -9.9 °C 30.54 in /  1034.1 hPa North 8.5 mph /  13.7 km/h 13.8 mph /  22.2 km/h 60 % 0.00 in /  0 mm
06:41 26.2 °F /  -3.2 °C 14.2 °F /  -9.9 °C 30.54 in /  1034.1 hPa NNE 12.0 mph /  19.3 km/h 16.1 mph /  25.9 km/h 60 % 0.00 in /  0 mm
06:46 26.2 °F /  -3.2 °C 13.4 °F /  -10.3 °C 30.54 in /  1034.1 hPa NNE 8.0 mph /  12.9 km/h 18.4 mph /  29.6 km/h 58 % 0.00 in /  0 mm
06:51 26.1 °F /  -3.3 °C 12.9 °F /  -10.6 °C 30.55 in /  1034.4 hPa NNE 11.3 mph /  18.2 km/h 19.6 mph /  31.5 km/h 57 % 0.00 in /  0 mm
06:56 26.1 °F /  -3.3 °C 13.7 °F /  -10.2 °C 30.55 in /  1034.4 hPa NE 9.7 mph /  15.6 km/h 13.8 mph /  22.2 km/h 59 % 0.00 in /  0 mm
07:01 26.1 °F /  -3.3 °C 13.7 °F /  -10.2 °C 30.55 in /  1034.4 hPa NNE 6.5 mph /  10.5 km/h 10.4 mph /  16.7 km/h 59 % 0.00 in /  0 mm
07:06 26.2 °F /  -3.2 °C 13.4 °F /  -10.3 °C 30.55 in /  1034.4 hPa NNE 8.1 mph /  13 km/h 15.0 mph /  24.1 km/h 58 % 0.00 in /  0 mm
07:11 26.2 °F /  -3.2 °C 13.4 °F /  -10.3 °C 30.55 in /  1034.4 hPa North 7.2 mph /  11.6 km/h 11.5 mph /  18.5 km/h 58 % 0.00 in /  0 mm
07:17 26.2 °F /  -3.2 °C 13.4 °F /  -10.3 °C 30.56 in /  1034.8 hPa North 10.0 mph /  16.1 km/h 13.8 mph /  22.2 km/h 58 % 0.00 in /  0 mm
07:22 26.2 °F /  -3.2 °C 13.8 °F /  -10.1 °C 30.56 in /  1034.8 hPa NNE 8.9 mph /  14.3 km/h 15.0 mph /  24.1 km/h 59 % 0.00 in /  0 mm
07:27 26.2 °F /  -3.2 °C 13.0 °F /  -10.6 °C 30.57 in /  1035.1 hPa NNE 5.9 mph /  9.5 km/h 13.8 mph /  22.2 km/h 57 % 0.00 in /  0 mm
07:32 26.2 °F /  -3.2 °C 13.0 °F /  -10.6 °C 30.57 in /  1035.1 hPa North 9.3 mph /  15 km/h 12.7 mph /  20.4 km/h 57 % 0.00 in /  0 mm
07:37 26.2 °F /  -3.2 °C 13.0 °F /  -10.6 °C 30.57 in /  1035.1 hPa NNE 7.1 mph /  11.4 km/h 11.5 mph /  18.5 km/h 57 % 0.00 in /  0 mm
07:42 26.3 °F /  -3.2 °C 13.5 °F /  -10.3 °C 30.57 in /  1035.1 hPa NNE 6.7 mph /  10.8 km/h 11.5 mph /  18.5 km/h 58 % 0.00 in /  0 mm
07:47 26.3 °F /  -3.2 °C 13.1 °F /  -10.5 °C 30.58 in /  1035.4 hPa North 8.4 mph /  13.5 km/h 11.5 mph /  18.5 km/h 57 % 0.00 in /  0 mm
07:52 26.3 °F /  -3.2 °C 13.1 °F /  -10.5 °C 30.57 in /  1035.1 hPa NNE 5.7 mph /  9.2 km/h 9.2 mph /  14.8 km/h 57 % 0.00 in /  0 mm
07:57 26.4 °F /  -3.1 °C 13.6 °F /  -10.2 °C 30.58 in /  1035.4 hPa NNE 8.3 mph /  13.4 km/h 12.7 mph /  20.4 km/h 58 % 0.00 in /  0 mm
08:02 26.4 °F /  -3.1 °C 13.2 °F /  -10.4 °C 30.58 in /  1035.4 hPa NNE 9.0 mph /  14.5 km/h 12.0 mph /  19.3 km/h 57 % 0.00 in /  0 mm
08:07 26.4 °F /  -3.1 °C 13.2 °F /  -10.4 °C 30.58 in /  1035.4 hPa NNE 4.0 mph /  6.4 km/h 8.1 mph /  13 km/h 57 % 0.00 in /  0 mm
08:12 26.5 °F /  -3.1 °C 13.7 °F /  -10.2 °C 30.58 in /  1035.4 hPa NNE 5.6 mph /  9 km/h 9.2 mph /  14.8 km/h 58 % 0.00 in /  0 mm
08:17 26.6 °F /  -3 °C 13.8 °F /  -10.1 °C 30.58 in /  1035.4 hPa NNE 5.9 mph /  9.5 km/h 11.5 mph /  18.5 km/h 58 % 0.00 in /  0 mm
08:22 26.9 °F /  -2.8 °C 14.5 °F /  -9.7 °C 30.58 in /  1035.4 hPa NNE 8.0 mph /  12.9 km/h 9.2 mph /  14.8 km/h 59 % 0.00 in /  0 mm
08:27 27.1 °F /  -2.7 °C 14.3 °F /  -9.8 °C 30.58 in /  1035.4 hPa NNE 4.9 mph /  7.9 km/h 9.2 mph /  14.8 km/h 58 % 0.00 in /  0 mm
08:32 27.4 °F /  -2.6 °C 14.5 °F /  -9.7 °C 30.59 in /  1035.8 hPa NNE 6.1 mph /  9.8 km/h 8.1 mph /  13 km/h 58 % 0.00 in /  0 mm
08:37 27.7 °F /  -2.4 °C 14.8 °F /  -9.6 °C 30.59 in /  1035.8 hPa NNE 7.0 mph /  11.3 km/h 11.0 mph /  17.7 km/h 58 % 0.00 in /  0 mm
08:42 28.0 °F /  -2.2 °C 14.7 °F /  -9.6 °C 30.59 in /  1035.8 hPa NE 3.7 mph /  6 km/h 6.9 mph /  11.1 km/h 57 % 0.00 in /  0 mm
08:47 28.3 °F /  -2.1 °C 14.6 °F /  -9.7 °C 30.59 in /  1035.8 hPa NNE 7.2 mph /  11.6 km/h 11.5 mph /  18.5 km/h 56 % 0.00 in /  0 mm
08:52 28.7 °F /  -1.8 °C 15.4 °F /  -9.2 °C 30.59 in /  1035.8 hPa NNE 3.3 mph /  5.3 km/h 5.8 mph /  9.3 km/h 57 % 0.00 in /  0 mm
08:57 29.1 °F /  -1.6 °C 15.3 °F /  -9.3 °C 30.59 in /  1035.8 hPa NNE 3.4 mph /  5.5 km/h 8.1 mph /  13 km/h 56 % 0.00 in /  0 mm
09:02 29.6 °F /  -1.3 °C 15.4 °F /  -9.2 °C 30.59 in /  1035.8 hPa ENE 4.7 mph /  7.6 km/h 8.1 mph /  13 km/h 55 % 0.00 in /  0 mm
09:07 29.9 °F /  -1.2 °C 15.3 °F /  -9.3 °C 30.59 in /  1035.8 hPa NNE 3.3 mph /  5.3 km/h 4.6 mph /  7.4 km/h 54 % 0.00 in /  0 mm
09:13 30.6 °F /  -0.8 °C 15.9 °F /  -8.9 °C 30.59 in /  1035.8 hPa North 6.7 mph /  10.8 km/h 8.1 mph /  13 km/h 54 % 0.00 in /  0 mm
09:18 30.8 °F /  -0.7 °C 16.1 °F /  -8.8 °C 30.59 in /  1035.8 hPa NNE 2.8 mph /  4.5 km/h 5.8 mph /  9.3 km/h 54 % 0.00 in /  0 mm
09:23 31.2 °F /  -0.4 °C 15.2 °F /  -9.3 °C 30.58 in /  1035.4 hPa NE 2.3 mph /  3.7 km/h 8.1 mph /  13 km/h 51 % 0.00 in /  0 mm
09:28 31.4 °F /  -0.3 °C 15.8 °F /  -9 °C 30.59 in /  1035.8 hPa NNE 2.7 mph /  4.3 km/h 8.1 mph /  13 km/h 52 % 0.00 in /  0 mm
09:33 31.4 °F /  -0.3 °C 14.9 °F /  -9.5 °C 30.59 in /  1035.8 hPa NE 4.9 mph /  7.9 km/h 8.1 mph /  13 km/h 50 % 0.00 in /  0 mm
09:38 31.0 °F /  -0.6 °C 15.0 °F /  -9.4 °C 30.59 in /  1035.8 hPa ENE 2.9 mph /  4.7 km/h 6.9 mph /  11.1 km/h 51 % 0.00 in /  0 mm
09:43 31.1 °F /  -0.5 °C 15.1 °F /  -9.4 °C 30.59 in /  1035.8 hPa ENE 4.4 mph /  7.1 km/h 5.8 mph /  9.3 km/h 51 % 0.00 in /  0 mm
09:48 30.7 °F /  -0.7 °C 13.8 °F /  -10.1 °C 30.59 in /  1035.8 hPa NE 3.1 mph /  5 km/h 4.6 mph /  7.4 km/h 49 % 0.00 in /  0 mm
09:53 31.0 °F /  -0.6 °C 15.0 °F /  -9.4 °C 30.60 in /  1036.1 hPa ENE 3.0 mph /  4.8 km/h 4.6 mph /  7.4 km/h 51 % 0.00 in /  0 mm
09:58 31.1 °F /  -0.5 °C 14.6 °F /  -9.7 °C 30.59 in /  1035.8 hPa ENE 3.6 mph /  5.8 km/h 6.9 mph /  11.1 km/h 50 % 0.00 in /  0 mm
10:03 31.1 °F /  -0.5 °C 14.6 °F /  -9.7 °C 30.60 in /  1036.1 hPa ENE 4.0 mph /  6.4 km/h 8.1 mph /  13 km/h 50 % 0.00 in /  0 mm
10:08 31.0 °F /  -0.6 °C 15.0 °F /  -9.4 °C 30.60 in /  1036.1 hPa ENE 2.8 mph /  4.5 km/h 4.6 mph /  7.4 km/h 51 % 0.00 in /  0 mm
10:13 31.0 °F /  -0.6 °C 14.5 °F /  -9.7 °C 30.60 in /  1036.1 hPa NNE 3.2 mph /  5.1 km/h 8.1 mph /  13 km/h 50 % 0.00 in /  0 mm
10:18 31.3 °F /  -0.4 °C 15.2 °F /  -9.3 °C 30.59 in /  1035.8 hPa NE 3.1 mph /  5 km/h 6.9 mph /  11.1 km/h 51 % 0.00 in /  0 mm
10:23 31.6 °F /  -0.2 °C 16.0 °F /  -8.9 °C 30.59 in /  1035.8 hPa East 3.8 mph /  6.1 km/h 7.0 mph /  11.3 km/h 52 % 0.00 in /  0 mm
10:28 31.7 °F /  -0.2 °C 15.6 °F /  -9.1 °C 30.59 in /  1035.8 hPa ENE 3.0 mph /  4.8 km/h 5.8 mph /  9.3 km/h 51 % 0.00 in /  0 mm
10:33 31.9 °F /  -0.1 °C 15.3 °F /  -9.3 °C 30.59 in /  1035.8 hPa East 4.8 mph /  7.7 km/h 9.2 mph /  14.8 km/h 50 % 0.00 in /  0 mm
10:38 31.8 °F /  -0.1 °C 14.8 °F /  -9.6 °C 30.59 in /  1035.8 hPa NNE 2.6 mph /  4.2 km/h 4.6 mph /  7.4 km/h 49 % 0.00 in /  0 mm
10:43 32.1 °F /  0.1 °C 15.5 °F /  -9.2 °C 30.58 in /  1035.4 hPa ENE 3.9 mph /  6.3 km/h 6.9 mph /  11.1 km/h 50 % 0.00 in /  0 mm
10:48 32.4 °F /  0.2 °C 15.8 °F /  -9 °C 30.58 in /  1035.4 hPa ENE 2.5 mph /  4 km/h 6.9 mph /  11.1 km/h 50 % 0.00 in /  0 mm
10:53 33.0 °F /  0.6 °C 16.4 °F /  -8.7 °C 30.58 in /  1035.4 hPa ENE 7.4 mph /  11.9 km/h 8.1 mph /  13 km/h 50 % 0.00 in /  0 mm
10:59 32.8 °F /  0.4 °C 15.7 °F /  -9.1 °C 30.57 in /  1035.1 hPa NE 3.0 mph /  4.8 km/h 6.9 mph /  11.1 km/h 49 % 0.00 in /  0 mm
11:04 32.8 °F /  0.4 °C 14.8 °F /  -9.6 °C 30.58 in /  1035.4 hPa ENE 1.3 mph /  2.1 km/h 6.9 mph /  11.1 km/h 47 % 0.00 in /  0 mm
11:09 33.4 °F /  0.8 °C 15.3 °F /  -9.3 °C 30.58 in /  1035.4 hPa ENE 3.9 mph /  6.3 km/h 6.9 mph /  11.1 km/h 47 % 0.00 in /  0 mm
11:14 33.7 °F /  0.9 °C 16.1 °F /  -8.8 °C 30.58 in /  1035.4 hPa ENE 2.6 mph /  4.2 km/h 8.1 mph /  13 km/h 48 % 0.00 in /  0 mm
11:19 34.0 °F /  1.1 °C 16.3 °F /  -8.7 °C 30.58 in /  1035.4 hPa NE 4.0 mph /  6.4 km/h 8.1 mph /  13 km/h 48 % 0.00 in /  0 mm
11:24 34.0 °F /  1.1 °C 14.3 °F /  -9.8 °C 30.57 in /  1035.1 hPa NE 3.5 mph /  5.6 km/h 5.8 mph /  9.3 km/h 44 % 0.00 in /  0 mm
11:29 34.4 °F /  1.3 °C 17.7 °F /  -7.9 °C 30.58 in /  1035.4 hPa ENE 2.5 mph /  4 km/h 3.5 mph /  5.6 km/h 50 % 0.00 in /  0 mm
11:34 34.7 °F /  1.5 °C 16.5 °F /  -8.6 °C 30.58 in /  1035.4 hPa NE 2.1 mph /  3.4 km/h 3.5 mph /  5.6 km/h 47 % 0.00 in /  0 mm
11:39 34.7 °F /  1.5 °C 15.5 °F /  -9.2 °C 30.57 in /  1035.1 hPa NE 3.1 mph /  5 km/h 6.9 mph /  11.1 km/h 45 % 0.00 in /  0 mm
11:44 34.4 °F /  1.3 °C 16.2 °F /  -8.8 °C 30.57 in /  1035.1 hPa ENE 2.9 mph /  4.7 km/h 4.0 mph /  6.4 km/h 47 % 0.00 in /  0 mm
11:49 34.2 °F /  1.2 °C 16.0 °F /  -8.9 °C 30.56 in /  1034.8 hPa East 2.8 mph /  4.5 km/h 5.0 mph /  8 km/h 47 % 0.00 in /  0 mm
11:54 34.1 °F /  1.2 °C 16.9 °F /  -8.4 °C 30.56 in /  1034.8 hPa ENE 1.4 mph /  2.3 km/h 4.0 mph /  6.4 km/h 49 % 0.00 in /  0 mm
11:59 33.4 °F /  0.8 °C 14.3 °F /  -9.8 °C 30.56 in /  1034.8 hPa ESE 2.8 mph /  4.5 km/h 4.6 mph /  7.4 km/h 45 % 0.00 in /  0 mm
12:04 33.0 °F /  0.6 °C 15.4 °F /  -9.2 °C 30.56 in /  1034.8 hPa East 3.8 mph /  6.1 km/h 6.0 mph /  9.7 km/h 48 % 0.00 in /  0 mm
12:09 32.6 °F /  0.3 °C 16.0 °F /  -8.9 °C 30.56 in /  1034.8 hPa NE 2.6 mph /  4.2 km/h 5.0 mph /  8 km/h 50 % 0.00 in /  0 mm
12:14 32.7 °F /  0.4 °C 14.7 °F /  -9.6 °C 30.56 in /  1034.8 hPa ENE 1.9 mph /  3.1 km/h 3.5 mph /  5.6 km/h 47 % 0.00 in /  0 mm
12:19 32.8 °F /  0.4 °C 14.8 °F /  -9.6 °C 30.57 in /  1035.1 hPa ENE 2.8 mph /  4.5 km/h 4.0 mph /  6.4 km/h 47 % 0.00 in /  0 mm
12:24 32.9 °F /  0.5 °C 15.8 °F /  -9 °C 30.56 in /  1034.8 hPa NE 0.9 mph /  1.4 km/h 3.0 mph /  4.8 km/h 49 % 0.00 in /  0 mm
12:30 33.0 °F /  0.6 °C 12.9 °F /  -10.6 °C 30.56 in /  1034.8 hPa ENE 0.5 mph /  0.8 km/h 1.0 mph /  1.6 km/h 43 % 0.00 in /  0 mm
12:35 33.3 °F /  0.7 °C 14.7 °F /  -9.6 °C 30.56 in /  1034.8 hPa ENE 4.6 mph /  7.4 km/h 6.9 mph /  11.1 km/h 46 % 0.00 in /  0 mm
12:40 33.3 °F /  0.7 °C 14.2 °F /  -9.9 °C 30.55 in /  1034.4 hPa ENE 3.4 mph /  5.5 km/h 4.6 mph /  7.4 km/h 45 % 0.00 in /  0 mm
12:45 33.2 °F /  0.7 °C 14.1 °F /  -9.9 °C 30.55 in /  1034.4 hPa ENE 2.7 mph /  4.3 km/h 4.6 mph /  7.4 km/h 45 % 0.00 in /  0 mm
12:50 33.2 °F /  0.7 °C 14.6 °F /  -9.7 °C 30.55 in /  1034.4 hPa ENE 3.5 mph /  5.6 km/h 8.1 mph /  13 km/h 46 % 0.00 in /  0 mm
12:55 33.2 °F /  0.7 °C 13.6 °F /  -10.2 °C 30.54 in /  1034.1 hPa ENE 2.4 mph /  3.9 km/h 3.5 mph /  5.6 km/h 44 % 0.00 in /  0 mm
13:00 33.4 °F /  0.8 °C 15.3 °F /  -9.3 °C 30.54 in /  1034.1 hPa East 4.2 mph /  6.8 km/h 6.9 mph /  11.1 km/h 47 % 0.00 in /  0 mm
13:05 33.4 °F /  0.8 °C 14.8 °F /  -9.6 °C 30.54 in /  1034.1 hPa NE 3.9 mph /  6.3 km/h 6.0 mph /  9.7 km/h 46 % 0.00 in /  0 mm
13:10 33.6 °F /  0.9 °C 15.0 °F /  -9.4 °C 30.54 in /  1034.1 hPa ENE 3.4 mph /  5.5 km/h 4.6 mph /  7.4 km/h 46 % 0.00 in /  0 mm
13:15 33.9 °F /  1.1 °C 15.3 °F /  -9.3 °C 30.53 in /  1033.7 hPa NE 1.5 mph /  2.4 km/h 3.5 mph /  5.6 km/h 46 % 0.00 in /  0 mm
13:20 34.0 °F /  1.1 °C 13.8 °F /  -10.1 °C 30.53 in /  1033.7 hPa East 3.3 mph /  5.3 km/h 6.9 mph /  11.1 km/h 43 % 0.00 in /  0 mm
13:25 34.0 °F /  1.1 °C 13.8 °F /  -10.1 °C 30.53 in /  1033.7 hPa ENE 2.0 mph /  3.2 km/h 3.5 mph /  5.6 km/h 43 % 0.00 in /  0 mm
13:30 34.1 °F /  1.2 °C 14.9 °F /  -9.5 °C 30.52 in /  1033.4 hPa ENE 5.9 mph /  9.5 km/h 7.0 mph /  11.3 km/h 45 % 0.00 in /  0 mm
13:35 34.1 °F /  1.2 °C 14.4 °F /  -9.8 °C 30.52 in /  1033.4 hPa East 2.8 mph /  4.5 km/h 4.6 mph /  7.4 km/h 44 % 0.00 in /  0 mm
13:41 34.2 °F /  1.2 °C 14.5 °F /  -9.7 °C 30.52 in /  1033.4 hPa ENE 2.0 mph /  3.2 km/h 6.0 mph /  9.7 km/h 44 % 0.00 in /  0 mm
13:46 34.3 °F /  1.3 °C 16.1 °F /  -8.8 °C 30.52 in /  1033.4 hPa ENE 3.0 mph /  4.8 km/h 7.0 mph /  11.3 km/h 47 % 0.00 in /  0 mm
13:51 34.4 °F /  1.3 °C 15.7 °F /  -9.1 °C 30.51 in /  1033.1 hPa NE 4.1 mph /  6.6 km/h 7.0 mph /  11.3 km/h 46 % 0.00 in /  0 mm
13:56 34.4 °F /  1.3 °C 15.7 °F /  -9.1 °C 30.51 in /  1033.1 hPa East 3.6 mph /  5.8 km/h 5.8 mph /  9.3 km/h 46 % 0.00 in /  0 mm
14:01 34.4 °F /  1.3 °C 15.2 °F /  -9.3 °C 30.51 in /  1033.1 hPa NE 4.8 mph /  7.7 km/h 6.9 mph /  11.1 km/h 45 % 0.00 in /  0 mm
14:06 34.1 °F /  1.2 °C 14.9 °F /  -9.5 °C 30.51 in /  1033.1 hPa NE 5.7 mph /  9.2 km/h 7.0 mph /  11.3 km/h 45 % 0.00 in /  0 mm
14:11 34.0 °F /  1.1 °C 14.9 °F /  -9.5 °C 30.51 in /  1033.1 hPa ENE 5.1 mph /  8.2 km/h 9.2 mph /  14.8 km/h 45 % 0.00 in /  0 mm
14:16 33.9 °F /  1.1 °C 14.8 °F /  -9.6 °C 30.51 in /  1033.1 hPa NE 4.2 mph /  6.8 km/h 6.9 mph /  11.1 km/h 45 % 0.00 in /  0 mm
14:21 33.7 °F /  0.9 °C 16.1 °F /  -8.8 °C 30.51 in /  1033.1 hPa ENE 3.8 mph /  6.1 km/h 6.9 mph /  11.1 km/h 48 % 0.00 in /  0 mm
14:26 33.7 °F /  0.9 °C 15.6 °F /  -9.1 °C 30.50 in /  1032.7 hPa NE 3.1 mph /  5 km/h 4.6 mph /  7.4 km/h 47 % 0.00 in /  0 mm
14:31 33.9 °F /  1.1 °C 16.3 °F /  -8.7 °C 30.50 in /  1032.7 hPa ENE 2.1 mph /  3.4 km/h 3.5 mph /  5.6 km/h 48 % 0.00 in /  0 mm
14:36 33.9 °F /  1.1 °C 15.8 °F /  -9 °C 30.50 in /  1032.7 hPa ENE 3.5 mph /  5.6 km/h 6.9 mph /  11.1 km/h 47 % 0.00 in /  0 mm
14:41 34.0 °F /  1.1 °C 16.3 °F /  -8.7 °C 30.50 in /  1032.7 hPa ENE 2.7 mph /  4.3 km/h 4.0 mph /  6.4 km/h 48 % 0.00 in /  0 mm
14:46 33.8 °F /  1 °C 15.7 °F /  -9.1 °C 30.50 in /  1032.7 hPa ENE 3.0 mph /  4.8 km/h 4.6 mph /  7.4 km/h 47 % 0.00 in /  0 mm
14:51 33.7 °F /  0.9 °C 16.1 °F /  -8.8 °C 30.50 in /  1032.7 hPa East 2.8 mph /  4.5 km/h 3.5 mph /  5.6 km/h 48 % 0.00 in /  0 mm
14:56 33.6 °F /  0.9 °C 16.5 °F /  -8.6 °C 30.50 in /  1032.7 hPa ENE 2.6 mph /  4.2 km/h 4.6 mph /  7.4 km/h 49 % 0.00 in /  0 mm
15:01 33.4 °F /  0.8 °C 15.3 °F /  -9.3 °C 30.50 in /  1032.7 hPa East 3.1 mph /  5 km/h 3.1 mph /  5 km/h 47 % 0.00 in /  0 mm
15:07 33.3 °F /  0.7 °C 15.2 °F /  -9.3 °C 30.50 in /  1032.7 hPa ENE 3.7 mph /  6 km/h 3.7 mph /  6 km/h 47 % 0.00 in /  0 mm
15:12 33.3 °F /  0.7 °C 14.2 °F /  -9.9 °C 30.50 in /  1032.7 hPa ENE 1.9 mph /  3.1 km/h 3.5 mph /  5.6 km/h 45 % 0.00 in /  0 mm
15:17 33.3 °F /  0.7 °C 15.2 °F /  -9.3 °C 30.50 in /  1032.7 hPa ENE 2.4 mph /  3.9 km/h 4.6 mph /  7.4 km/h 47 % 0.00 in /  0 mm
15:22 33.4 °F /  0.8 °C 13.8 °F /  -10.1 °C 30.49 in /  1032.4 hPa East 2.1 mph /  3.4 km/h 6.9 mph /  11.1 km/h 44 % 0.00 in /  0 mm
15:27 33.3 °F /  0.7 °C 13.2 °F /  -10.4 °C 30.50 in /  1032.7 hPa ENE 3.5 mph /  5.6 km/h 6.9 mph /  11.1 km/h 43 % 0.00 in /  0 mm
15:32 33.3 °F /  0.7 °C 15.2 °F /  -9.3 °C 30.49 in /  1032.4 hPa ENE 2.9 mph /  4.7 km/h 4.6 mph /  7.4 km/h 47 % 0.00 in /  0 mm
15:37 33.4 °F /  0.8 °C 15.8 °F /  -9 °C 30.49 in /  1032.4 hPa ENE 2.4 mph /  3.9 km/h 8.1 mph /  13 km/h 48 % 0.00 in /  0 mm
15:42 33.3 °F /  0.7 °C 15.2 °F /  -9.3 °C 30.50 in /  1032.7 hPa ENE 2.4 mph /  3.9 km/h 3.5 mph /  5.6 km/h 47 % 0.00 in /  0 mm
15:47 33.3 °F /  0.7 °C 15.2 °F /  -9.3 °C 30.50 in /  1032.7 hPa NE 2.6 mph /  4.2 km/h 3.5 mph /  5.6 km/h 47 % 0.00 in /  0 mm
15:52 33.2 °F /  0.7 °C 15.1 °F /  -9.4 °C 30.50 in /  1032.7 hPa ENE 3.1 mph /  5 km/h 4.6 mph /  7.4 km/h 47 % 0.00 in /  0 mm
15:57 33.2 °F /  0.7 °C 15.6 °F /  -9.1 °C 30.50 in /  1032.7 hPa ENE 2.4 mph /  3.9 km/h 4.0 mph /  6.4 km/h 48 % 0.00 in /  0 mm
16:02 33.2 °F /  0.7 °C 16.5 °F /  -8.6 °C 30.50 in /  1032.7 hPa ENE 3.4 mph /  5.5 km/h 5.8 mph /  9.3 km/h 50 % 0.00 in /  0 mm
16:08 33.1 °F /  0.6 °C 15.5 °F /  -9.2 °C 30.50 in /  1032.7 hPa ENE 3.1 mph /  5 km/h 4.6 mph /  7.4 km/h 48 % 0.00 in /  0 mm
16:13 33.0 °F /  0.6 °C 16.8 °F /  -8.4 °C 30.50 in /  1032.7 hPa NE 2.4 mph /  3.9 km/h 4.0 mph /  6.4 km/h 51 % 0.00 in /  0 mm
16:18 33.0 °F /  0.6 °C 16.4 °F /  -8.7 °C 30.49 in /  1032.4 hPa NE 2.2 mph /  3.5 km/h 3.5 mph /  5.6 km/h 50 % 0.00 in /  0 mm
16:23 32.9 °F /  0.5 °C 15.3 °F /  -9.3 °C 30.49 in /  1032.4 hPa ENE 3.5 mph /  5.6 km/h 5.0 mph /  8 km/h 48 % 0.00 in /  0 mm
16:28 32.9 °F /  0.5 °C 16.3 °F /  -8.7 °C 30.49 in /  1032.4 hPa ENE 1.7 mph /  2.7 km/h 3.5 mph /  5.6 km/h 50 % 0.00 in /  0 mm
16:33 32.8 °F /  0.4 °C 16.2 °F /  -8.8 °C 30.49 in /  1032.4 hPa ENE 2.7 mph /  4.3 km/h 3.5 mph /  5.6 km/h 50 % 0.00 in /  0 mm
16:38 32.8 °F /  0.4 °C 16.6 °F /  -8.6 °C 30.49 in /  1032.4 hPa ENE 1.1 mph /  1.8 km/h 2.3 mph /  3.7 km/h 51 % 0.00 in /  0 mm
16:43 32.7 °F /  0.4 °C 17.0 °F /  -8.3 °C 30.49 in /  1032.4 hPa ENE 2.1 mph /  3.4 km/h 3.5 mph /  5.6 km/h 52 % 0.00 in /  0 mm
16:48 32.7 °F /  0.4 °C 17.4 °F /  -8.1 °C 30.49 in /  1032.4 hPa ENE 1.0 mph /  1.6 km/h 3.5 mph /  5.6 km/h 53 % 0.00 in /  0 mm
16:53 32.6 °F /  0.3 °C 17.8 °F /  -7.9 °C 30.49 in /  1032.4 hPa ENE 1.1 mph /  1.8 km/h 2.3 mph /  3.7 km/h 54 % 0.00 in /  0 mm
16:58 32.6 °F /  0.3 °C 18.2 °F /  -7.7 °C 30.49 in /  1032.4 hPa ESE 0.3 mph /  0.5 km/h 2.3 mph /  3.7 km/h 55 % 0.00 in /  0 mm
17:03 32.6 °F /  0.3 °C 18.6 °F /  -7.4 °C 30.48 in /  1032.1 hPa SE 1.3 mph /  2.1 km/h 4.6 mph /  7.4 km/h 56 % 0.00 in /  0 mm
17:08 32.5 °F /  0.3 °C 19.3 °F /  -7.1 °C 30.48 in /  1032.1 hPa South 1.1 mph /  1.8 km/h 4.6 mph /  7.4 km/h 58 % 0.00 in /  0 mm
17:13 32.5 °F /  0.3 °C 20.1 °F /  -6.6 °C 30.48 in /  1032.1 hPa SSE 2.8 mph /  4.5 km/h 3.5 mph /  5.6 km/h 60 % 0.00 in /  0 mm
17:19 32.5 °F /  0.3 °C 20.5 °F /  -6.4 °C 30.48 in /  1032.1 hPa SE 3.9 mph /  6.3 km/h 5.0 mph /  8 km/h 61 % 0.00 in /  0 mm
17:24 32.5 °F /  0.3 °C 20.9 °F /  -6.2 °C 30.48 in /  1032.1 hPa South 0.9 mph /  1.4 km/h 3.5 mph /  5.6 km/h 62 % 0.00 in /  0 mm
17:29 32.4 °F /  0.2 °C 20.8 °F /  -6.2 °C 30.48 in /  1032.1 hPa South 1.6 mph /  2.6 km/h 4.6 mph /  7.4 km/h 62 % 0.00 in /  0 mm
17:34 32.3 °F /  0.2 °C 20.7 °F /  -6.3 °C 30.47 in /  1031.7 hPa Calm   2.3 mph /  3.7 km/h 62 % 0.00 in /  0 mm
17:39 32.3 °F /  0.2 °C 21.1 °F /  -6.1 °C 30.48 in /  1032.1 hPa SSE 2.0 mph /  3.2 km/h 4.0 mph /  6.4 km/h 63 % 0.00 in /  0 mm
17:44 32.1 °F /  0.1 °C 20.9 °F /  -6.2 °C 30.48 in /  1032.1 hPa SSE 2.3 mph /  3.7 km/h 3.5 mph /  5.6 km/h 63 % 0.00 in /  0 mm
17:49 32.0 °F /  0 °C 20.8 °F /  -6.2 °C 30.48 in /  1032.1 hPa SE 0.3 mph /  0.5 km/h 2.3 mph /  3.7 km/h 63 % 0.00 in /  0 mm
17:54 31.9 °F /  -0.1 °C 20.7 °F /  -6.3 °C 30.48 in /  1032.1 hPa SSE 1.2 mph /  1.9 km/h 4.0 mph /  6.4 km/h 63 % 0.00 in /  0 mm
17:59 31.8 °F /  -0.1 °C 21.4 °F /  -5.9 °C 30.48 in /  1032.1 hPa SSE 2.6 mph /  4.2 km/h 3.5 mph /  5.6 km/h 65 % 0.00 in /  0 mm
18:04 31.7 °F /  -0.2 °C 21.3 °F /  -5.9 °C 30.48 in /  1032.1 hPa SSE 0.1 mph /  0.2 km/h 3.5 mph /  5.6 km/h 65 % 0.00 in /  0 mm
18:09 31.6 °F /  -0.2 °C 21.5 °F /  -5.8 °C 30.48 in /  1032.1 hPa SSE 2.8 mph /  4.5 km/h 3.5 mph /  5.6 km/h 66 % 0.00 in /  0 mm
18:14 31.5 °F /  -0.3 °C 21.8 °F /  -5.7 °C 30.48 in /  1032.1 hPa SSE 1.0 mph /  1.6 km/h 3.5 mph /  5.6 km/h 67 % 0.00 in /  0 mm
18:19 31.5 °F /  -0.3 °C 21.8 °F /  -5.7 °C 30.48 in /  1032.1 hPa SSE 1.1 mph /  1.8 km/h 4.0 mph /  6.4 km/h 67 % 0.00 in /  0 mm
18:24 31.4 °F /  -0.3 °C 22.1 °F /  -5.5 °C 30.48 in /  1032.1 hPa SSE 1.6 mph /  2.6 km/h 3.5 mph /  5.6 km/h 68 % 0.00 in /  0 mm
18:29 31.2 °F /  -0.4 °C 22.2 °F /  -5.4 °C 30.48 in /  1032.1 hPa South 0.2 mph /  0.3 km/h 2.0 mph /  3.2 km/h 69 % 0.00 in /  0 mm
18:34 31.1 °F /  -0.5 °C 22.1 °F /  -5.5 °C 30.48 in /  1032.1 hPa South 0.5 mph /  0.8 km/h 2.3 mph /  3.7 km/h 69 % 0.00 in /  0 mm
18:39 31.1 °F /  -0.5 °C 22.5 °F /  -5.3 °C 30.47 in /  1031.7 hPa SSE 1.1 mph /  1.8 km/h 3.5 mph /  5.6 km/h 70 % 0.00 in /  0 mm
18:44 31.0 °F /  -0.6 °C 22.4 °F /  -5.3 °C 30.47 in /  1031.7 hPa SSE 1.3 mph /  2.1 km/h 4.0 mph /  6.4 km/h 70 % 0.00 in /  0 mm
18:49 31.0 °F /  -0.6 °C 22.7 °F /  -5.2 °C 30.47 in /  1031.7 hPa SSE 1.0 mph /  1.6 km/h 3.5 mph /  5.6 km/h 71 % 0.00 in /  0 mm
18:55 30.9 °F /  -0.6 °C 22.9 °F /  -5.1 °C 30.46 in /  1031.4 hPa SSE 0.2 mph /  0.3 km/h 4.6 mph /  7.4 km/h 72 % 0.00 in /  0 mm
19:00 30.9 °F /  -0.6 °C 22.9 °F /  -5.1 °C 30.46 in /  1031.4 hPa SSE 0.3 mph /  0.5 km/h 2.3 mph /  3.7 km/h 72 % 0.00 in /  0 mm
19:05 30.8 °F /  -0.7 °C 23.2 °F /  -4.9 °C 30.46 in /  1031.4 hPa Calm     73 % 0.00 in /  0 mm
19:10 30.8 °F /  -0.7 °C 23.2 °F /  -4.9 °C 30.45 in /  1031 hPa Calm     73 % 0.00 in /  0 mm
19:15 30.7 °F /  -0.7 °C 23.1 °F /  -4.9 °C 30.45 in /  1031 hPa Calm     73 % 0.00 in /  0 mm
19:20 30.7 °F /  -0.7 °C 23.1 °F /  -4.9 °C 30.45 in /  1031 hPa Calm     73 % 0.00 in /  0 mm
19:25 30.6 °F /  -0.8 °C 23.0 °F /  -5 °C 30.46 in /  1031.4 hPa Calm     73 % 0.00 in /  0 mm
19:30 30.5 °F /  -0.8 °C 22.9 °F /  -5.1 °C 30.45 in /  1031 hPa Calm     73 % 0.00 in /  0 mm
19:35 30.3 °F /  -0.9 °C 22.7 °F /  -5.2 °C 30.45 in /  1031 hPa Calm     73 % 0.00 in /  0 mm
19:40 30.2 °F /  -1 °C 22.9 °F /  -5.1 °C 30.44 in /  1030.7 hPa Calm     74 % 0.00 in /  0 mm
19:45 30.0 °F /  -1.1 °C 22.7 °F /  -5.2 °C 30.44 in /  1030.7 hPa Calm     74 % 0.00 in /  0 mm
19:50 29.9 °F /  -1.2 °C 22.6 °F /  -5.2 °C 30.45 in /  1031 hPa Calm     74 % 0.00 in /  0 mm
19:55 29.7 °F /  -1.3 °C 22.7 °F /  -5.2 °C 30.45 in /  1031 hPa Calm     75 % 0.00 in /  0 mm
20:00 29.6 °F /  -1.3 °C 23.0 °F /  -5 °C 30.45 in /  1031 hPa Calm     76 % 0.00 in /  0 mm
20:05 29.4 °F /  -1.4 °C 22.8 °F /  -5.1 °C 30.44 in /  1030.7 hPa Calm     76 % 0.00 in /  0 mm
20:10 29.3 °F /  -1.5 °C 22.7 °F /  -5.2 °C 30.45 in /  1031 hPa Calm     76 % 0.00 in /  0 mm
20:16 29.2 °F /  -1.6 °C 22.9 °F /  -5.1 °C 30.45 in /  1031 hPa Calm     77 % 0.00 in /  0 mm
20:21 29.1 °F /  -1.6 °C 22.7 °F /  -5.2 °C 30.44 in /  1030.7 hPa Calm     77 % 0.00 in /  0 mm
20:26 29.0 °F /  -1.7 °C 22.7 °F /  -5.2 °C 30.44 in /  1030.7 hPa Calm     77 % 0.00 in /  0 mm
20:31 29.0 °F /  -1.7 °C 23.0 °F /  -5 °C 30.44 in /  1030.7 hPa Calm     78 % 0.00 in /  0 mm
20:36 28.9 °F /  -1.7 °C 23.2 °F /  -4.9 °C 30.43 in /  1030.4 hPa Calm     79 % 0.00 in /  0 mm
20:41 28.9 °F /  -1.7 °C 23.2 °F /  -4.9 °C 30.43 in /  1030.4 hPa Calm     79 % 0.00 in /  0 mm
20:46 28.9 °F /  -1.7 °C 23.5 °F /  -4.7 °C 30.43 in /  1030.4 hPa Calm     80 % 0.00 in /  0 mm
20:51 29.0 °F /  -1.7 °C 23.9 °F /  -4.5 °C 30.43 in /  1030.4 hPa Calm     81 % 0.00 in /  0 mm
20:56 29.0 °F /  -1.7 °C 23.9 °F /  -4.5 °C 30.43 in /  1030.4 hPa Calm     81 % 0.00 in /  0 mm
21:01 29.0 °F /  -1.7 °C 23.9 °F /  -4.5 °C 30.42 in /  1030 hPa Calm     81 % 0.00 in /  0 mm
21:06 29.1 °F /  -1.6 °C 24.0 °F /  -4.4 °C 30.41 in /  1029.7 hPa Calm     81 % 0.00 in /  0 mm
21:11 29.2 °F /  -1.6 °C 24.1 °F /  -4.4 °C 30.41 in /  1029.7 hPa Calm     81 % 0.00 in /  0 mm
21:16 29.3 °F /  -1.5 °C 24.2 °F /  -4.3 °C 30.41 in /  1029.7 hPa Calm     81 % 0.00 in /  0 mm
21:21 29.4 °F /  -1.4 °C 24.6 °F /  -4.1 °C 30.41 in /  1029.7 hPa Calm     82 % 0.00 in /  0 mm
21:26 29.5 °F /  -1.4 °C 24.4 °F /  -4.2 °C 30.40 in /  1029.3 hPa Calm     81 % 0.00 in /  0 mm
21:31 29.6 °F /  -1.3 °C 24.5 °F /  -4.2 °C 30.40 in /  1029.3 hPa Calm     81 % 0.00 in /  0 mm
21:36 29.7 °F /  -1.3 °C 24.6 °F /  -4.1 °C 30.40 in /  1029.3 hPa Calm     81 % 0.00 in /  0 mm
21:41 29.7 °F /  -1.3 °C 24.6 °F /  -4.1 °C 30.39 in /  1029 hPa Calm     81 % 0.00 in /  0 mm
21:46 29.9 °F /  -1.2 °C 25.1 °F /  -3.8 °C 30.39 in /  1029 hPa Calm     82 % 0.00 in /  0 mm
21:51 30.0 °F /  -1.1 °C 24.9 °F /  -3.9 °C 30.38 in /  1028.7 hPa Calm     81 % 0.00 in /  0 mm
21:56 30.1 °F /  -1.1 °C 25.0 °F /  -3.9 °C 30.38 in /  1028.7 hPa Calm     81 % 0.00 in /  0 mm
22:01 30.1 °F /  -1.1 °C 25.3 °F /  -3.7 °C 30.38 in /  1028.7 hPa Calm     82 % 0.00 in /  0 mm
22:06 30.2 °F /  -1 °C 25.1 °F /  -3.8 °C 30.38 in /  1028.7 hPa Calm     81 % 0.00 in /  0 mm
22:11 30.3 °F /  -0.9 °C 25.2 °F /  -3.8 °C 30.37 in /  1028.3 hPa Calm     81 % 0.00 in /  0 mm
22:16 30.3 °F /  -0.9 °C 25.2 °F /  -3.8 °C 30.37 in /  1028.3 hPa Calm     81 % 0.00 in /  0 mm
22:21 30.4 °F /  -0.9 °C 25.3 °F /  -3.7 °C 30.37 in /  1028.3 hPa Calm     81 % 0.00 in /  0 mm
22:26 30.5 °F /  -0.8 °C 25.4 °F /  -3.7 °C 30.36 in /  1028 hPa Calm     81 % 0.00 in /  0 mm
22:31 30.5 °F /  -0.8 °C 25.7 °F /  -3.5 °C 30.36 in /  1028 hPa Calm     82 % 0.00 in /  0 mm
22:37 30.6 °F /  -0.8 °C 25.5 °F /  -3.6 °C 30.36 in /  1028 hPa Calm     81 % 0.00 in /  0 mm
22:42 30.6 °F /  -0.8 °C 25.8 °F /  -3.4 °C 30.36 in /  1028 hPa Calm     82 % 0.00 in /  0 mm
22:47 30.6 °F /  -0.8 °C 25.8 °F /  -3.4 °C 30.36 in /  1028 hPa Calm     82 % 0.00 in /  0 mm
22:52 30.7 °F /  -0.7 °C 25.9 °F /  -3.4 °C 30.36 in /  1028 hPa Calm     82 % 0.00 in /  0 mm
22:57 30.7 °F /  -0.7 °C 25.9 °F /  -3.4 °C 30.36 in /  1028 hPa Calm     82 % 0.00 in /  0 mm
23:02 30.8 °F /  -0.7 °C 26.0 °F /  -3.3 °C 30.35 in /  1027.7 hPa Calm     82 % 0.00 in /  0 mm
23:07 30.8 °F /  -0.7 °C 26.0 °F /  -3.3 °C 30.35 in /  1027.7 hPa Calm     82 % 0.00 in /  0 mm
23:12 30.9 °F /  -0.6 °C 26.1 °F /  -3.3 °C 30.34 in /  1027.3 hPa Calm     82 % 0.00 in /  0 mm
23:17 30.9 °F /  -0.6 °C 26.1 °F /  -3.3 °C 30.34 in /  1027.3 hPa Calm     82 % 0.00 in /  0 mm
23:22 30.9 °F /  -0.6 °C 26.1 °F /  -3.3 °C 30.34 in /  1027.3 hPa Calm     82 % 0.00 in /  0 mm
23:27 31.0 °F /  -0.6 °C 25.9 °F /  -3.4 °C 30.33 in /  1027 hPa Calm     81 % 0.00 in /  0 mm
23:32 31.1 °F /  -0.5 °C 26.2 °F /  -3.2 °C 30.32 in /  1026.6 hPa SSE 0.2 mph /  0.3 km/h 1.2 mph /  1.9 km/h 82 % 0.00 in /  0 mm
23:37 31.1 °F /  -0.5 °C 26.2 °F /  -3.2 °C 30.32 in /  1026.6 hPa Calm     82 % 0.00 in /  0 mm
23:42 31.2 °F /  -0.4 °C 26.3 °F /  -3.2 °C 30.32 in /  1026.6 hPa Calm     82 % 0.00 in /  0 mm
23:47 31.2 °F /  -0.4 °C 26.3 °F /  -3.2 °C 30.32 in /  1026.6 hPa Calm     82 % 0.00 in /  0 mm
23:52 31.3 °F /  -0.4 °C 26.4 °F /  -3.1 °C 30.32 in /  1026.6 hPa Calm     82 % 0.00 in /  0 mm
23:57 31.3 °F /  -0.4 °C 26.4 °F /  -3.1 °C 30.31 in /  1026.3 hPa Calm     82 % 0.00 in /  0 mm
Crab Meadow Weather
Compliments of Weather Underground - 3 mb

Script developed by  Jim McMurry - jmcmurry@mwt.net Adapted for the template by  Wim van der Kuil - Leuven-Template.eu

Weather Terms: Blizzard Warning - Sustained winds or frequent gusts of 35 mph or greater, considerable falling and/or blowing snow reducing visibility frequently to 1/4 mile or less for a period of three hours or more. There are no temperature criteria in the definition of a blizzard but freezing temperatures and 35 mph winds will create sub-zero wind chills.